createdAt,value
2019-04-26T00:01:40.345Z,4.93
2019-04-26T00:04:10.287Z,5.57
2019-04-26T00:06:39.704Z,5.73
2019-04-26T00:09:28.581Z,6.30
2019-04-26T00:12:14.707Z,6.17
2019-04-26T00:15:10.080Z,7.13
2019-04-26T00:17:49.051Z,6.83
2019-04-26T00:20:19.033Z,6.17
2019-04-26T00:22:48.398Z,6.83
2019-04-26T00:25:18.636Z,8.07
2019-04-26T00:27:47.736Z,6.33
2019-04-26T00:30:17.061Z,6.00
2019-04-26T00:32:46.296Z,6.83
2019-04-26T00:35:15.702Z,6.80
2019-04-26T00:37:44.847Z,7.27
2019-04-26T00:40:14.373Z,7.30
2019-04-26T00:42:44.932Z,6.63
2019-04-26T00:45:14.976Z,7.37
2019-04-26T00:47:45.388Z,6.73
2019-04-26T00:50:15.340Z,7.37
2019-04-26T00:52:45.669Z,6.67
2019-04-26T00:55:15.672Z,8.07
2019-04-26T00:57:45.934Z,6.93
2019-04-26T01:00:18.160Z,6.90
2019-04-26T01:02:51.389Z,7.37
2019-04-26T01:05:20.926Z,7.10
2019-04-26T01:07:52.317Z,5.63
2019-04-26T01:10:21.704Z,6.90
2019-04-26T01:12:50.892Z,6.77
2019-04-26T01:15:21.776Z,7.30
2019-04-26T01:17:50.893Z,6.30
2019-04-26T01:20:22.575Z,6.00
2019-04-26T01:22:54.234Z,7.93
2019-04-26T01:25:38.679Z,7.40
2019-04-26T01:28:10.471Z,7.03
2019-04-26T01:30:40.695Z,7.50
2019-04-26T01:33:10.517Z,7.00
2019-04-26T01:35:40.577Z,8.60
2019-04-26T01:38:13.131Z,7.37
2019-04-26T01:40:44.627Z,7.13
2019-04-26T01:43:26.790Z,7.50
2019-04-26T01:46:13.524Z,6.43
2019-04-26T01:49:06.736Z,7.33
2019-04-26T01:51:40.644Z,8.17
2019-04-26T01:54:13.815Z,6.67
2019-04-26T01:56:42.984Z,7.03
2019-04-26T01:59:15.294Z,8.20
2019-04-26T02:02:11.841Z,7.20
2019-04-26T02:04:44.027Z,7.50
2019-04-26T02:07:16.095Z,7.03
2019-04-26T02:09:45.299Z,7.50
2019-04-26T02:12:14.795Z,7.33
2019-04-26T02:14:43.988Z,7.30
2019-04-26T02:17:13.151Z,7.97
2019-04-26T02:19:42.264Z,6.57
2019-04-26T02:22:24.519Z,7.00
2019-04-26T02:24:54.468Z,7.90
2019-04-26T02:27:26.311Z,7.90
2019-04-26T02:29:56.144Z,8.70
2019-04-26T02:32:27.228Z,8.80
2019-04-26T02:34:56.865Z,8.23
2019-04-26T02:37:27.040Z,6.70
2019-04-26T02:39:57.007Z,7.80
2019-04-26T02:42:32.875Z,7.20
2019-04-26T02:45:33.940Z,8.83
2019-04-26T02:48:27.103Z,8.77
2019-04-26T02:51:02.627Z,7.30
2019-04-26T02:53:44.731Z,8.70
2019-04-26T02:56:46.804Z,7.87
2019-04-26T02:59:33.990Z,9.03
2019-04-26T03:02:05.586Z,8.57
2019-04-26T03:04:39.513Z,8.17
2019-04-26T03:07:19.880Z,7.97
2019-04-26T03:09:51.602Z,8.03
2019-04-26T03:12:24.751Z,8.00
2019-04-26T03:15:23.783Z,8.40
2019-04-26T03:18:16.431Z,8.93
2019-04-26T03:20:48.583Z,8.87
2019-04-26T03:23:57.495Z,12.23
2019-04-26T03:26:35.173Z,10.60
2019-04-26T03:29:25.570Z,10.10
2019-04-26T03:32:49.330Z,8.73
2019-04-26T03:35:55.348Z,8.90
2019-04-26T03:38:28.718Z,11.00
2019-04-26T03:41:19.168Z,9.40
2019-04-26T03:44:07.223Z,8.47
2019-04-26T03:47:03.133Z,8.20
2019-04-26T03:49:43.308Z,8.90
2019-04-26T03:52:39.659Z,9.27
2019-04-26T03:55:43.775Z,10.30
2019-04-26T03:58:17.663Z,9.53
2019-04-26T04:00:53.929Z,8.67
2019-04-26T04:03:33.629Z,10.20
2019-04-26T04:06:05.590Z,10.73
2019-04-26T04:08:44.665Z,8.60
2019-04-26T04:11:18.081Z,8.50
2019-04-26T04:14:01.869Z,8.20
2019-04-26T04:17:34.252Z,8.83
2019-04-26T04:20:32.095Z,8.77
2019-04-26T04:23:31.698Z,8.83
2019-04-26T04:26:03.858Z,8.50
2019-04-26T04:28:56.297Z,9.30
2019-04-26T04:31:34.125Z,8.93
2019-04-26T04:34:12.063Z,8.57
2019-04-26T04:36:53.291Z,12.13
2019-04-26T04:39:53.521Z,11.50
2019-04-26T04:42:54.900Z,9.57
2019-04-26T04:45:59.080Z,10.50
2019-04-26T04:49:06.313Z,8.37
2019-04-26T04:52:11.811Z,8.93
2019-04-26T04:55:00.784Z,9.67
2019-04-26T04:57:48.080Z,9.00
2019-04-26T05:00:45.052Z,9.60
2019-04-26T05:03:31.216Z,9.53
2019-04-26T05:06:13.364Z,10.70
2019-04-26T05:08:56.933Z,11.30
2019-04-26T05:11:51.838Z,13.20
2019-04-26T05:14:46.235Z,17.00
2019-04-26T05:17:47.482Z,14.27
2019-04-26T05:20:44.438Z,9.20
2019-04-26T05:23:41.885Z,9.17
2019-04-26T05:26:56.695Z,8.07
2019-04-26T05:30:28.583Z,8.73
2019-04-26T05:33:15.948Z,9.77
2019-04-26T05:36:03.212Z,10.60
2019-04-26T05:39:00.284Z,8.23
2019-04-26T05:41:53.655Z,8.40
2019-04-26T05:45:17.977Z,7.87
2019-04-26T05:48:11.836Z,7.37
2019-04-26T05:51:34.056Z,10.03
2019-04-26T05:54:54.781Z,7.40
2019-04-26T05:58:13.584Z,8.33
2019-04-26T06:01:50.525Z,8.63
2019-04-26T06:04:57.803Z,9.03
2019-04-26T06:08:02.929Z,8.10
2019-04-26T06:10:44.646Z,8.87
2019-04-26T06:14:06.792Z,9.90
2019-04-26T06:17:01.588Z,6.60
2019-04-26T06:19:59.372Z,6.43
2019-04-26T06:22:36.966Z,7.37
2019-04-26T06:25:38.569Z,6.80
2019-04-26T06:28:24.687Z,6.57
2019-04-26T06:31:16.550Z,6.73
2019-04-26T06:33:58.710Z,6.67
2019-04-26T06:36:43.927Z,6.73
2019-04-26T06:39:36.500Z,6.00
2019-04-26T06:42:29.996Z,6.83
2019-04-26T06:45:42.681Z,6.50
2019-04-26T06:48:35.552Z,6.83
2019-04-26T06:51:23.487Z,6.67
2019-04-26T06:54:13.431Z,4.90
2019-04-26T06:57:29.021Z,4.67
2019-04-26T07:00:13.302Z,6.00
2019-04-26T07:03:13.727Z,4.83
2019-04-26T07:05:45.616Z,4.83
2019-04-26T07:08:37.097Z,5.83
2019-04-26T07:12:03.847Z,5.60
2019-04-26T07:15:10.315Z,6.70
2019-04-26T07:18:15.577Z,5.43
2019-04-26T07:21:02.505Z,5.83
2019-04-26T07:23:55.894Z,5.93
2019-04-26T07:26:57.007Z,4.80
2019-04-26T07:30:09.740Z,5.00
2019-04-26T07:33:18.315Z,4.40
2019-04-26T07:36:12.897Z,5.20
2019-04-26T07:39:21.597Z,4.23
2019-04-26T07:42:56.666Z,4.50
2019-04-26T07:45:52.947Z,4.57
2019-04-26T07:48:59.744Z,4.60
2019-04-26T07:52:22.295Z,4.07
2019-04-26T07:55:31.336Z,4.20
2019-04-26T07:58:27.338Z,3.30
2019-04-26T08:01:16.877Z,3.33
2019-04-26T08:03:58.352Z,3.00
2019-04-26T08:06:43.052Z,3.57
2019-04-26T08:09:26.511Z,3.70
2019-04-26T08:11:50.554Z,4.40
2019-04-26T08:14:35.003Z,3.97
2019-04-26T08:17:39.594Z,3.37
2019-04-26T08:20:42.913Z,3.20
2019-04-26T08:23:37.330Z,3.10
2019-04-26T08:25:50.087Z,3.20
2019-04-26T08:28:21.939Z,3.53
2019-04-26T08:30:54.856Z,2.93
2019-04-26T08:33:33.397Z,2.63
2019-04-26T08:36:06.082Z,3.40
2019-04-26T08:38:39.372Z,3.00
2019-04-26T08:41:10.017Z,3.50
2019-04-26T08:43:59.804Z,3.10
2019-04-26T08:46:49.256Z,3.20
2019-04-26T08:49:35.177Z,2.90
2019-04-26T08:52:14.302Z,2.87
2019-04-26T08:54:45.564Z,3.30
2019-04-26T08:57:16.332Z,2.73
2019-04-26T08:59:50.237Z,3.30
2019-04-26T09:02:40.923Z,2.63
2019-04-26T09:05:33.039Z,3.37
2019-04-26T09:08:05.179Z,3.43
2019-04-26T09:10:43.282Z,3.23
2019-04-26T09:13:14.529Z,3.60
2019-04-26T09:16:05.102Z,3.80
2019-04-26T09:18:43.151Z,3.50
2019-04-26T09:21:06.055Z,4.00
2019-04-26T09:24:05.030Z,3.30
2019-04-26T09:26:42.453Z,3.43
2019-04-26T09:29:44.289Z,3.90
2019-04-26T09:32:16.992Z,3.20
2019-04-26T09:34:46.984Z,4.23
2019-04-26T09:37:17.333Z,3.50
2019-04-26T09:39:47.491Z,3.70
2019-04-26T09:42:27.048Z,4.33
2019-04-26T09:45:27.491Z,4.10
2019-04-26T09:48:01.854Z,3.70
2019-04-26T09:50:46.907Z,3.70
2019-04-26T09:53:17.019Z,4.50
2019-04-26T09:55:47.083Z,3.80
2019-04-26T09:58:16.150Z,3.67
2019-04-26T10:00:48.499Z,4.17
2019-04-26T10:03:18.248Z,4.00
2019-04-26T10:05:47.418Z,4.30
2019-04-26T10:08:19.681Z,4.70
2019-04-26T10:10:51.574Z,3.57
2019-04-26T10:13:44.605Z,3.40
2019-04-26T10:16:21.257Z,3.87
2019-04-26T10:18:58.334Z,4.30
2019-04-26T10:21:32.802Z,3.70
2019-04-26T10:24:02.006Z,3.53
2019-04-26T10:26:32.009Z,3.60
2019-04-26T10:29:01.203Z,3.83
2019-04-26T10:31:31.113Z,3.60
2019-04-26T10:34:00.388Z,3.90
2019-04-26T10:36:30.058Z,4.07
2019-04-26T10:39:00.488Z,3.70
2019-04-26T10:41:29.662Z,4.00
2019-04-26T10:44:00.612Z,3.93
2019-04-26T10:46:29.679Z,4.63
2019-04-26T10:49:08.970Z,4.13
2019-04-26T10:51:38.722Z,4.40
2019-04-26T10:54:14.585Z,4.53
2019-04-26T10:57:09.344Z,4.73
2019-04-26T10:59:45.545Z,4.10
2019-04-26T11:02:18.192Z,4.30
2019-04-26T11:04:47.320Z,4.37
2019-04-26T11:07:17.687Z,4.67
2019-04-26T11:09:47.295Z,4.97
2019-04-26T11:12:17.120Z,4.73
2019-04-26T11:14:46.321Z,3.67
2019-04-26T11:17:16.253Z,3.80
2019-04-26T11:19:46.439Z,3.93
2019-04-26T11:22:28.600Z,4.70
2019-04-26T11:24:50.176Z,6.40
2019-04-26T11:27:19.576Z,4.20
2019-04-26T11:29:53.790Z,4.17
2019-04-26T11:32:19.441Z,4.87
2019-04-26T11:34:48.606Z,5.03
2019-04-26T11:37:19.449Z,5.70
2019-04-26T11:39:48.942Z,4.83
2019-04-26T11:42:18.082Z,4.33
2019-04-26T11:44:47.244Z,4.30
2019-04-26T11:47:16.466Z,4.30
2019-04-26T11:49:45.559Z,4.90
2019-04-26T11:52:14.800Z,4.70
2019-04-26T11:54:44.274Z,4.70
2019-04-26T11:57:13.673Z,4.30
2019-04-26T11:59:42.771Z,4.13
2019-04-26T12:02:12.369Z,2.83
2019-04-26T12:04:53.677Z,3.53
2019-04-26T12:07:26.996Z,3.77
2019-04-26T12:09:58.214Z,4.47
2019-04-26T12:12:27.396Z,4.37
2019-04-26T12:14:56.645Z,4.80
2019-04-26T12:17:27.141Z,4.60
2019-04-26T12:19:56.435Z,5.20
2019-04-26T12:22:26.579Z,5.00
2019-04-26T12:24:55.695Z,5.23
2019-04-26T12:27:26.586Z,4.90
2019-04-26T12:29:55.600Z,5.47
2019-04-26T12:32:25.059Z,5.80
2019-04-26T12:34:54.188Z,4.23
2019-04-26T12:37:26.247Z,5.37
2019-04-26T12:39:55.419Z,5.70
2019-04-26T12:42:24.910Z,5.30
2019-04-26T12:45:01.554Z,5.87
2019-04-26T12:47:40.112Z,4.60
2019-04-26T12:50:09.415Z,5.30
2019-04-26T12:52:38.519Z,5.67
2019-04-26T12:55:07.673Z,6.80
2019-04-26T12:57:40.671Z,6.47
2019-04-26T13:00:07.856Z,5.57
2019-04-26T13:02:37.108Z,5.57
2019-04-26T13:05:06.790Z,4.97
2019-04-26T13:07:39.006Z,4.83
2019-04-26T13:10:31.393Z,5.07
2019-04-26T13:13:06.995Z,4.40
2019-04-26T13:16:06.348Z,4.10
2019-04-26T13:18:35.605Z,3.63
2019-04-26T13:21:07.927Z,4.40
2019-04-26T13:23:37.429Z,3.40
2019-04-26T13:26:06.618Z,3.40
2019-04-26T13:28:35.903Z,2.83
2019-04-26T13:31:05.156Z,4.33
2019-04-26T13:33:34.339Z,3.23
2019-04-26T13:36:05.437Z,3.87
2019-04-26T13:38:34.692Z,3.07
2019-04-26T13:41:06.271Z,3.40
2019-04-26T13:43:35.266Z,3.30
2019-04-26T13:46:26.408Z,3.13
2019-04-26T13:49:09.679Z,2.23
2019-04-26T13:51:39.140Z,2.77
2019-04-26T13:54:08.969Z,3.70
2019-04-26T13:56:38.055Z,2.57
2019-04-26T13:59:08.040Z,3.30
2019-04-26T14:01:38.555Z,3.30
2019-04-26T14:04:09.377Z,2.90
2019-04-26T14:06:40.723Z,2.93
2019-04-26T14:09:11.455Z,3.57
2019-04-26T14:11:40.669Z,2.90
2019-04-26T14:14:10.013Z,2.80
2019-04-26T14:16:39.350Z,2.90
2019-04-26T14:19:14.628Z,3.03
2019-04-26T14:21:39.605Z,3.10
2019-04-26T14:24:36.815Z,2.23
2019-04-26T14:27:14.916Z,2.67
2019-04-26T14:29:44.415Z,3.37
2019-04-26T14:32:13.425Z,3.40
2019-04-26T14:34:45.107Z,3.73
2019-04-26T14:37:15.626Z,3.23
2019-04-26T14:39:50.603Z,3.57
2019-04-26T14:42:15.587Z,3.57
2019-04-26T14:44:49.476Z,3.30
2019-04-26T14:47:17.999Z,4.07
2019-04-26T14:49:46.327Z,2.87
2019-04-26T14:52:15.492Z,4.00
2019-04-26T14:54:46.032Z,3.60
2019-04-26T14:57:22.522Z,3.33
2019-04-26T14:59:56.645Z,4.40
2019-04-26T15:02:47.202Z,2.93
2019-04-26T15:05:33.218Z,3.23
2019-04-26T15:08:03.899Z,3.90
2019-04-26T15:10:45.728Z,3.07
2019-04-26T15:13:17.365Z,3.73
2019-04-26T15:15:38.663Z,4.93
2019-04-26T15:18:07.925Z,4.60
2019-04-26T15:20:37.408Z,4.47
2019-04-26T15:23:06.550Z,5.10
2019-04-26T15:25:36.871Z,4.70
2019-04-26T15:28:06.924Z,3.80
2019-04-26T15:30:43.365Z,4.80
2019-04-26T15:33:08.862Z,4.00
2019-04-26T15:35:38.802Z,4.70
2019-04-26T15:38:08.159Z,4.63
2019-04-26T15:41:11.774Z,5.13
2019-04-26T15:44:02.720Z,5.43
2019-04-26T15:46:50.986Z,5.60
2019-04-26T15:49:37.659Z,5.27
2019-04-26T15:52:06.940Z,6.30
2019-04-26T15:54:36.102Z,5.70
2019-04-26T15:57:06.581Z,5.60
2019-04-26T15:59:36.369Z,5.63
2019-04-26T16:02:05.676Z,6.37
2019-04-26T16:04:34.881Z,6.60
2019-04-26T16:07:04.094Z,5.10
2019-04-26T16:09:33.299Z,6.20
2019-04-26T16:12:03.544Z,5.90
2019-04-26T16:14:36.487Z,5.73
2019-04-26T16:17:06.527Z,5.83
2019-04-26T16:19:34.931Z,7.00
2019-04-26T16:22:04.156Z,8.90
2019-04-26T16:24:34.552Z,7.63
2019-04-26T16:27:04.473Z,8.27
2019-04-26T16:29:42.463Z,8.33
2019-04-26T16:32:34.610Z,6.97
2019-04-26T16:35:04.074Z,7.53
2019-04-26T16:37:35.186Z,8.50
2019-04-26T16:40:07.871Z,8.57
2019-04-26T16:42:35.917Z,8.87
2019-04-26T16:45:07.898Z,8.90
2019-04-26T16:47:44.996Z,9.23
2019-04-26T16:50:08.534Z,9.30
2019-04-26T16:55:17.627Z,10.00
2019-04-26T16:57:53.300Z,7.87
2019-04-26T17:00:16.210Z,7.80
2019-04-26T17:00:45.009Z,9.47
2019-04-26T17:02:44.023Z,10.10
2019-04-26T17:05:23.787Z,7.07
2019-04-26T17:07:46.045Z,8.70
2019-04-26T17:10:16.599Z,12.20
2019-04-26T17:12:50.532Z,12.53
2019-04-26T17:15:20.650Z,12.60
2019-04-26T17:17:50.443Z,13.13
2019-04-26T17:20:19.145Z,13.37
2019-04-26T17:23:13.296Z,14.00
2019-04-26T17:26:02.075Z,14.07
2019-04-26T17:28:32.592Z,13.97
2019-04-26T17:31:02.146Z,13.23
2019-04-26T17:33:32.678Z,15.03
2019-04-26T17:36:01.896Z,15.53
2019-04-26T17:38:31.284Z,15.23
2019-04-26T17:41:00.681Z,14.10
2019-04-26T17:43:30.595Z,13.13
2019-04-26T17:46:01.887Z,13.30
2019-04-26T17:48:33.573Z,13.77
2019-04-26T17:51:01.835Z,15.60
2019-04-26T17:53:33.148Z,12.10
2019-04-26T17:56:01.857Z,15.00
2019-04-26T17:58:34.304Z,14.13
2019-04-26T18:01:03.711Z,13.60
2019-04-26T18:03:33.471Z,15.03
2019-04-26T18:06:02.676Z,14.10
2019-04-26T18:08:40.797Z,14.70
2019-04-26T18:11:02.945Z,17.10
2019-04-26T18:13:32.201Z,15.70
2019-04-26T18:16:03.480Z,16.07
2019-04-26T18:19:10.109Z,17.20
2019-04-26T18:22:04.072Z,13.63
2019-04-26T18:24:34.970Z,17.30
2019-04-26T18:27:04.536Z,16.20
2019-04-26T18:29:33.760Z,18.20
2019-04-26T18:32:03.609Z,18.60
2019-04-26T18:34:37.204Z,14.80
2019-04-26T18:37:07.443Z,17.30
2019-04-26T18:39:36.733Z,16.53
2019-04-26T18:42:06.232Z,15.90
2019-04-26T18:44:39.099Z,16.93
2019-04-26T18:47:28.113Z,17.27
2019-04-26T18:49:58.298Z,16.93
2019-04-26T18:52:28.915Z,16.97
2019-04-26T18:55:05.445Z,17.30
2019-04-26T18:57:34.205Z,18.43
2019-04-26T19:00:04.130Z,20.30
2019-04-26T19:02:34.920Z,15.13
2019-04-26T19:05:04.397Z,12.90
2019-04-26T19:07:33.651Z,13.70
2019-04-26T19:10:05.236Z,8.90
2019-04-26T19:12:34.061Z,10.67
2019-04-26T19:15:22.266Z,13.10
2019-04-26T19:18:19.865Z,11.47
2019-04-26T19:21:08.061Z,13.33
2019-04-26T19:23:37.284Z,10.80
2019-04-26T19:26:09.422Z,12.37
2019-04-26T19:28:39.894Z,11.00
2019-04-26T19:31:08.513Z,11.50
2019-04-26T19:33:37.638Z,11.73
2019-04-26T19:36:06.786Z,11.53
2019-04-26T19:38:35.967Z,11.33
2019-04-26T19:41:05.159Z,12.50
2019-04-26T19:43:35.283Z,13.07
2019-04-26T19:46:12.930Z,12.77
2019-04-26T19:49:01.113Z,12.70
2019-04-26T19:51:52.262Z,11.77
2019-04-26T19:54:53.022Z,10.10
2019-04-26T19:57:26.840Z,12.10
2019-04-26T19:59:55.919Z,12.20
2019-04-26T20:02:26.865Z,14.27
2019-04-26T20:04:56.445Z,13.77
2019-04-26T20:07:28.354Z,14.47
2019-04-26T20:10:02.374Z,18.37
2019-04-26T20:12:29.531Z,18.07
2019-04-26T20:14:58.530Z,17.00
2019-04-26T20:17:27.773Z,17.00
2019-04-26T20:19:56.903Z,16.67
2019-04-26T20:22:29.991Z,18.27
2019-04-26T20:24:57.599Z,16.43
2019-04-26T20:27:27.976Z,13.47
2019-04-26T20:29:57.431Z,14.77
2019-04-26T20:32:31.979Z,14.83
2019-04-26T20:35:13.073Z,13.90
2019-04-26T20:37:44.896Z,13.30
2019-04-26T20:40:20.235Z,11.80
2019-04-26T20:42:44.372Z,8.23
2019-04-26T20:45:16.729Z,13.17
2019-04-26T20:47:46.774Z,11.77
2019-04-26T20:50:15.660Z,10.20
2019-04-26T20:52:45.558Z,8.23
2019-04-26T20:55:14.933Z,8.70
2019-04-26T20:57:44.947Z,8.53
2019-04-26T21:00:14.464Z,5.93
2019-04-26T21:02:43.629Z,8.17
2019-04-26T21:05:14.660Z,8.30
2019-04-26T21:07:49.379Z,5.60
2019-04-26T21:10:21.114Z,7.53
2019-04-26T21:12:47.336Z,8.73
2019-04-26T21:15:20.388Z,8.53
2019-04-26T21:17:46.888Z,8.80
2019-04-26T21:20:16.145Z,8.70
2019-04-26T21:22:45.352Z,8.80
2019-04-26T21:25:21.584Z,8.97
2019-04-26T21:28:08.107Z,8.67
2019-04-26T21:30:54.727Z,9.20
2019-04-26T21:33:39.036Z,7.40
2019-04-26T21:36:24.859Z,7.37
2019-04-26T21:39:04.094Z,6.70
2019-04-26T21:41:33.819Z,6.37
2019-04-26T21:44:03.206Z,6.20
2019-04-26T21:46:34.557Z,5.90
2019-04-26T21:49:03.765Z,6.07
2019-04-26T21:51:34.029Z,5.77
2019-04-26T21:54:03.775Z,5.90
2019-04-26T21:56:33.754Z,5.73
2019-04-26T21:59:03.748Z,6.50
2019-04-26T22:01:33.216Z,5.43
2019-04-26T22:04:03.075Z,6.00
2019-04-26T22:06:33.466Z,7.80
2019-04-26T22:09:11.422Z,6.80
2019-04-26T22:11:40.582Z,6.90
2019-04-26T22:14:20.104Z,7.37
2019-04-26T22:17:06.519Z,8.00
2019-04-26T22:19:49.828Z,7.87
2019-04-26T22:22:27.472Z,7.87
2019-04-26T22:24:57.758Z,8.03
2019-04-26T22:27:26.889Z,6.53
2019-04-26T22:29:55.908Z,7.90
2019-04-26T22:32:25.090Z,6.83
2019-04-26T22:34:54.204Z,4.67
2019-04-26T22:37:30.036Z,5.70
2019-04-26T22:39:57.124Z,6.20
2019-04-26T22:42:26.395Z,5.40
2019-04-26T22:45:09.423Z,5.50
2019-04-26T22:47:59.711Z,6.13
2019-04-26T22:50:28.715Z,3.77
2019-04-26T22:52:57.780Z,5.10
2019-04-26T22:55:27.573Z,5.20
2019-04-26T22:57:57.214Z,5.53
2019-04-26T23:00:29.758Z,4.30
2019-04-26T23:03:03.724Z,5.17
2019-04-26T23:05:30.756Z,3.90
2019-04-26T23:08:01.047Z,6.00
2019-04-26T23:10:36.522Z,4.90
2019-04-26T23:13:13.218Z,6.10
2019-04-26T23:15:54.350Z,5.30
2019-04-26T23:18:46.334Z,5.80
2019-04-26T23:21:21.029Z,6.00
2019-04-26T23:23:50.132Z,5.43
2019-04-26T23:26:19.303Z,6.27
2019-04-26T23:28:48.778Z,5.87
2019-04-26T23:31:17.952Z,5.13
2019-04-26T23:33:47.206Z,5.33
2019-04-26T23:36:18.367Z,5.77
2019-04-26T23:38:47.060Z,5.60
2019-04-26T23:41:17.410Z,4.80
2019-04-26T23:43:46.499Z,5.30
2019-04-26T23:46:18.890Z,4.30
2019-04-26T23:48:49.572Z,4.80
2019-04-26T23:51:17.674Z,5.30
2019-04-26T23:53:50.441Z,6.80
2019-04-26T23:56:21.895Z,4.90
2019-04-26T23:58:48.516Z,5.30
